Tuesday, October 23, 2018, 9:15 PM EDT
Back to Local

KPBG, Plattsburgh International Airport

Location: Plattsburgh, NY, United States Lat: 44.65
Local Time: 9:15 PM EDT ( 1:15 GMT) Lon: -73.467
Time Zone: US/Eastern Elev: 239 ft

Show me the last for .
Show Decoded

2018-10-23 20:53 METAR KPBG 240053Z AUTO 31006KT 10SM OVC025 04/03 A2997 RMK AO2 SLP151 T00440033
                 =
2018-10-23 19:53 METAR KPBG 232353Z AUTO 33007KT 10SM OVC024 05/04 A2997 RMK AO2 SLP150 60026
                 T00500039 10067 20050 53001 =
2018-10-23 18:53 METAR KPBG 232253Z AUTO 33005KT 10SM OVC019 05/04 A2996 RMK AO2 SLP149 T00500039
                 =
2018-10-23 17:53 METAR KPBG 232153Z AUTO 31004KT 10SM BKN017 OVC023 06/04 A2996 RMK AO2 RAE27
                 SLP149 P0000 T00560044 =
2018-10-23 16:53 METAR KPBG 232053Z AUTO 32005KT 9SM -RA SCT008 BKN021 OVC045 06/04 A2996 RMK AO2
                 SLP149 P0006 60026 T00610044 56004 =
2018-10-23 16:46 METAR KPBG 232046Z AUTO 33004KT 8SM -RA FEW008 BKN037 OVC045 06/04 A2996 RMK AO2
                 P0006 T00610044 =
2018-10-23 15:53 METAR KPBG 231953Z AUTO 00000KT 5SM RA BR BKN021 OVC027 06/04 A2997 RMK AO2
                 SLP151 P0011 T00610044 =
2018-10-23 15:24 METAR KPBG 231924Z AUTO 00000KT 4SM RA BR OVC018 06/05 A2997 RMK AO2 P0008
                 T00610050 =
2018-10-23 15:04 METAR KPBG 231904Z AUTO 00000KT 2 1/2SM RA BR BKN019 OVC025 06/05 A2997 RMK AO2
                 P0003 T00610050 =
2018-10-23 14:53 METAR KPBG 231853Z AUTO 00000KT 4SM RA BR SCT019 OVC026 06/05 A2997 RMK AO2
                 SLP151 P0009 T00610050 =
2018-10-23 14:27 METAR KPBG 231827Z AUTO 00000KT 6SM RA BR FEW023 BKN028 OVC035 07/05 A2997 RMK
                 AO2 P0004 T00670050 =
2018-10-23 13:53 METAR KPBG 231753Z AUTO 21003KT 10SM -RA SCT034 OVC042 07/04 A2998 RMK AO2
                 SLP153 P0002 60002 T00670044 10089 20022 58020 =
2018-10-23 12:53 METAR KPBG 231653Z AUTO 15004KT 6SM -RA BKN039 BKN046 OVC055 08/03 A3000 RMK AO2
                 RAB42 SLP159 P0000 T00830033 =
2018-10-23 11:53 METAR KPBG 231553Z AUTO 00000KT 10SM FEW070 BKN090 08/02 A3002 RMK AO2 SLP167
                 T00830022 =
2018-10-23 10:53 METAR KPBG 231453Z AUTO 03004KT 10SM SCT070 BKN085 08/04 A3004 RMK AO2 SLP172
                 T00830039 58012 =
2018-10-23 09:53 METAR KPBG 231353Z AUTO 00000KT 10SM CLR 07/04 A3005 RMK AO2 SLP179 T00720039 =
2018-10-23 08:53 METAR KPBG 231253Z AUTO 00000KT 10SM CLR 04/02 A3006 RMK AO2 SLP183 T00440022 =
2018-10-23 07:53 METAR KPBG 231153Z AUTO 00000KT 10SM SCT080 02/01 A3007 RMK AO2 SLP185 T00220011
                 10028 20022 56004 =
2018-10-23 06:53 METAR KPBG 231053Z AUTO 00000KT 10SM OVC080 03/02 A3007 RMK AO2 SLP185 T00280017
                 =
2018-10-23 05:53 METAR KPBG 230953Z AUTO 00000KT 10SM BKN050 OVC065 03/02 A3008 RMK AO2 SLP187
                 T00280017 =
2018-10-23 04:53 METAR KPBG 230853Z AUTO 32003KT 10SM OVC070 03/02 A3008 RMK AO2 SLP189 T00280017
                 55005 =
2018-10-23 03:53 METAR KPBG 230753Z AUTO 00000KT 10SM SCT036 OVC070 02/02 A3008 RMK AO2 SLP189
                 T00220017 =
2018-10-23 02:53 METAR KPBG 230653Z AUTO 00000KT 10SM OVC080 03/02 A3009 RMK AO2 SLP192 T00280017
                 =
2018-10-23 01:53 METAR KPBG 230553Z AUTO 00000KT 10SM OVC090 03/02 A3010 RMK AO2 RAE06 SLP194
                 P0000 60000 T00280022 10044 20028 58004 =
2018-10-23 00:53 METAR KPBG 230453Z AUTO 00000KT 10SM -RA OVC032 04/02 A3011 RMK AO2 RAB24 SLP198
                 P0000 T00390022 400721011 =
2018-10-22 23:53 METAR KPBG 230353Z AUTO 30003KT 10SM OVC039 04/02 A3011 RMK AO2 SLP197 T00390017
                 =
2018-10-22 22:53 METAR KPBG 230253Z AUTO 00000KT 10SM OVC046 04/02 A3011 RMK AO2 SLP198 60000
                 T00390017 50001 =
2018-10-22 21:53 METAR KPBG 230153Z AUTO 33003KT 10SM FEW045 OVC055 04/01 A3012 RMK AO2 SLP201
                 T00390006 =

Support USWX by starting your Amazon purchase here.